sensor_id;sensor_type;location;lat;lon;timestamp;P1;durP1;ratioP1;P2;durP2;ratioP2
75429;SDS011;64127;51.488;5.462;2022-10-14T00:00:00;23.13;;;20.73;;
75429;SDS011;64127;51.488;5.462;2022-10-14T00:02:32;23.37;;;20.97;;
75429;SDS011;64127;51.488;5.462;2022-10-14T00:05:04;24.30;;;21.77;;
75429;SDS011;64127;51.488;5.462;2022-10-14T00:07:37;22.87;;;20.50;;
75429;SDS011;64127;51.488;5.462;2022-10-14T00:10:09;23.27;;;20.83;;
75429;SDS011;64127;51.488;5.462;2022-10-14T00:12:41;22.53;;;20.13;;
75429;SDS011;64127;51.488;5.462;2022-10-14T00:15:13;22.10;;;20.10;;
75429;SDS011;64127;51.488;5.462;2022-10-14T00:17:45;22.03;;;19.37;;
75429;SDS011;64127;51.488;5.462;2022-10-14T00:20:17;21.63;;;19.33;;
75429;SDS011;64127;51.488;5.462;2022-10-14T00:22:49;21.17;;;19.03;;
75429;SDS011;64127;51.488;5.462;2022-10-14T00:25:21;21.30;;;19.10;;
75429;SDS011;64127;51.488;5.462;2022-10-14T00:27:53;21.77;;;19.47;;
75429;SDS011;64127;51.488;5.462;2022-10-14T00:30:25;20.83;;;18.83;;
75429;SDS011;64127;51.488;5.462;2022-10-14T00:32:57;21.80;;;19.53;;
75429;SDS011;64127;51.488;5.462;2022-10-14T00:35:29;21.47;;;19.37;;
75429;SDS011;64127;51.488;5.462;2022-10-14T00:38:02;22.43;;;20.23;;
75429;SDS011;64127;51.488;5.462;2022-10-14T00:40:34;22.70;;;20.37;;
75429;SDS011;64127;51.488;5.462;2022-10-14T00:43:08;22.30;;;19.90;;
75429;SDS011;64127;51.488;5.462;2022-10-14T00:45:44;22.63;;;20.10;;
75429;SDS011;64127;51.488;5.462;2022-10-14T00:48:16;21.20;;;19.10;;
75429;SDS011;64127;51.488;5.462;2022-10-14T00:50:53;23.40;;;20.93;;
75429;SDS011;64127;51.488;5.462;2022-10-14T00:53:27;22.13;;;19.60;;
75429;SDS011;64127;51.488;5.462;2022-10-14T00:55:59;21.73;;;19.63;;
75429;SDS011;64127;51.488;5.462;2022-10-14T00:58:31;22.73;;;19.67;;
75429;SDS011;64127;51.488;5.462;2022-10-14T01:01:03;23.60;;;20.00;;
75429;SDS011;64127;51.488;5.462;2022-10-14T01:03:36;23.90;;;19.53;;
75429;SDS011;64127;51.488;5.462;2022-10-14T01:17:49;23.57;;;20.80;;
75429;SDS011;64127;51.488;5.462;2022-10-14T01:30:05;20.40;;;18.30;;
75429;SDS011;64127;51.488;5.462;2022-10-14T01:32:49;21.67;;;19.47;;
75429;SDS011;64127;51.488;5.462;2022-10-14T01:38:35;21.77;;;19.63;;
75429;SDS011;64127;51.488;5.462;2022-10-14T01:43:53;21.73;;;19.50;;
75429;SDS011;64127;51.488;5.462;2022-10-14T01:46:32;23.57;;;20.23;;
75429;SDS011;64127;51.488;5.462;2022-10-14T01:49:09;22.33;;;20.03;;
75429;SDS011;64127;51.488;5.462;2022-10-14T01:51:51;22.93;;;19.90;;
75429;SDS011;64127;51.488;5.462;2022-10-14T01:54:58;21.73;;;19.53;;
75429;SDS011;64127;51.488;5.462;2022-10-14T01:57:36;24.53;;;21.03;;
75429;SDS011;64127;51.488;5.462;2022-10-14T02:00:13;22.47;;;20.17;;
75429;SDS011;64127;51.488;5.462;2022-10-14T02:02:45;22.97;;;20.40;;
75429;SDS011;64127;51.488;5.462;2022-10-14T02:05:20;23.27;;;20.30;;
75429;SDS011;64127;51.488;5.462;2022-10-14T02:08:12;21.50;;;19.23;;
75429;SDS011;64127;51.488;5.462;2022-10-14T02:11:24;22.13;;;19.73;;
75429;SDS011;64127;51.488;5.462;2022-10-14T02:18:11;22.37;;;19.77;;
75429;SDS011;64127;51.488;5.462;2022-10-14T02:21:22;21.87;;;19.37;;
75429;SDS011;64127;51.488;5.462;2022-10-14T02:24:31;21.03;;;18.93;;
75429;SDS011;64127;51.488;5.462;2022-10-14T02:27:09;22.47;;;19.50;;
75429;SDS011;64127;51.488;5.462;2022-10-14T02:29:47;22.27;;;19.53;;
75429;SDS011;64127;51.488;5.462;2022-10-14T02:32:22;21.60;;;19.30;;
75429;SDS011;64127;51.488;5.462;2022-10-14T02:34:58;24.00;;;20.57;;
75429;SDS011;64127;51.488;5.462;2022-10-14T02:37:32;22.83;;;20.37;;
75429;SDS011;64127;51.488;5.462;2022-10-14T02:40:15;23.87;;;19.93;;
75429;SDS011;64127;51.488;5.462;2022-10-14T02:42:53;21.77;;;19.13;;
75429;SDS011;64127;51.488;5.462;2022-10-14T02:45:26;24.90;;;20.37;;
75429;SDS011;64127;51.488;5.462;2022-10-14T02:47:58;22.83;;;19.97;;
75429;SDS011;64127;51.488;5.462;2022-10-14T02:50:30;25.17;;;20.10;;
75429;SDS011;64127;51.488;5.462;2022-10-14T02:53:03;25.17;;;19.90;;
75429;SDS011;64127;51.488;5.462;2022-10-14T02:55:35;24.73;;;19.93;;
75429;SDS011;64127;51.488;5.462;2022-10-14T02:58:07;24.00;;;19.47;;
75429;SDS011;64127;51.488;5.462;2022-10-14T03:00:39;25.10;;;19.10;;
75429;SDS011;64127;51.488;5.462;2022-10-14T03:03:11;24.23;;;19.33;;
75429;SDS011;64127;51.488;5.462;2022-10-14T03:05:43;22.37;;;18.57;;
75429;SDS011;64127;51.488;5.462;2022-10-14T03:08:15;22.13;;;18.97;;
75429;SDS011;64127;51.488;5.462;2022-10-14T03:10:47;21.47;;;18.33;;
75429;SDS011;64127;51.488;5.462;2022-10-14T03:13:19;22.23;;;18.50;;
75429;SDS011;64127;51.488;5.462;2022-10-14T03:15:52;20.93;;;18.23;;
75429;SDS011;64127;51.488;5.462;2022-10-14T03:18:24;22.07;;;18.83;;
75429;SDS011;64127;51.488;5.462;2022-10-14T03:20:56;23.73;;;17.90;;
75429;SDS011;64127;51.488;5.462;2022-10-14T03:23:28;21.67;;;17.57;;
75429;SDS011;64127;51.488;5.462;2022-10-14T03:26:00;19.97;;;17.87;;
75429;SDS011;64127;51.488;5.462;2022-10-14T03:28:32;22.73;;;17.53;;
75429;SDS011;64127;51.488;5.462;2022-10-14T03:31:04;18.77;;;16.70;;
75429;SDS011;64127;51.488;5.462;2022-10-14T03:33:36;19.40;;;16.83;;
75429;SDS011;64127;51.488;5.462;2022-10-14T03:36:08;21.20;;;17.10;;
75429;SDS011;64127;51.488;5.462;2022-10-14T03:38:40;18.80;;;16.73;;
75429;SDS011;64127;51.488;5.462;2022-10-14T03:41:12;19.37;;;16.63;;
75429;SDS011;64127;51.488;5.462;2022-10-14T03:43:44;18.80;;;16.30;;
75429;SDS011;64127;51.488;5.462;2022-10-14T03:46:16;20.13;;;17.17;;
75429;SDS011;64127;51.488;5.462;2022-10-14T03:48:49;18.40;;;16.43;;
75429;SDS011;64127;51.488;5.462;2022-10-14T03:51:23;18.60;;;16.50;;
75429;SDS011;64127;51.488;5.462;2022-10-14T03:53:55;18.10;;;16.20;;
75429;SDS011;64127;51.488;5.462;2022-10-14T03:56:27;18.63;;;16.73;;
75429;SDS011;64127;51.488;5.462;2022-10-14T03:58:59;19.23;;;16.80;;
75429;SDS011;64127;51.488;5.462;2022-10-14T04:01:31;18.33;;;16.43;;
75429;SDS011;64127;51.488;5.462;2022-10-14T04:04:04;18.20;;;16.17;;
75429;SDS011;64127;51.488;5.462;2022-10-14T04:06:36;18.87;;;16.87;;
75429;SDS011;64127;51.488;5.462;2022-10-14T04:09:08;19.20;;;16.70;;
75429;SDS011;64127;51.488;5.462;2022-10-14T04:11:39;18.47;;;16.50;;
75429;SDS011;64127;51.488;5.462;2022-10-14T04:14:12;19.13;;;16.03;;
75429;SDS011;64127;51.488;5.462;2022-10-14T04:16:43;19.57;;;16.50;;
75429;SDS011;64127;51.488;5.462;2022-10-14T04:19:20;19.53;;;16.47;;
75429;SDS011;64127;51.488;5.462;2022-10-14T04:21:52;17.17;;;15.47;;
75429;SDS011;64127;51.488;5.462;2022-10-14T04:24:24;16.87;;;15.03;;
75429;SDS011;64127;51.488;5.462;2022-10-14T04:26:56;18.50;;;16.13;;
75429;SDS011;64127;51.488;5.462;2022-10-14T04:29:28;17.80;;;15.93;;
75429;SDS011;64127;51.488;5.462;2022-10-14T04:32:00;18.50;;;16.10;;
75429;SDS011;64127;51.488;5.462;2022-10-14T04:34:32;17.13;;;15.33;;
75429;SDS011;64127;51.488;5.462;2022-10-14T04:37:04;16.20;;;14.50;;
75429;SDS011;64127;51.488;5.462;2022-10-14T04:39:36;17.60;;;15.00;;
75429;SDS011;64127;51.488;5.462;2022-10-14T04:42:08;16.43;;;14.57;;
75429;SDS011;64127;51.488;5.462;2022-10-14T04:44:40;16.13;;;13.90;;
75429;SDS011;64127;51.488;5.462;2022-10-14T04:47:12;15.77;;;14.00;;
75429;SDS011;64127;51.488;5.462;2022-10-14T04:49:44;14.87;;;13.37;;
75429;SDS011;64127;51.488;5.462;2022-10-14T04:52:16;14.63;;;13.13;;
75429;SDS011;64127;51.488;5.462;2022-10-14T04:54:48;13.20;;;11.83;;
75429;SDS011;64127;51.488;5.462;2022-10-14T04:57:20;13.23;;;12.03;;
75429;SDS011;64127;51.488;5.462;2022-10-14T04:59:52;13.13;;;11.93;;
75429;SDS011;64127;51.488;5.462;2022-10-14T05:02:24;13.10;;;11.80;;
75429;SDS011;64127;51.488;5.462;2022-10-14T05:04:56;12.93;;;11.70;;
75429;SDS011;64127;51.488;5.462;2022-10-14T05:07:28;11.93;;;10.73;;
75429;SDS011;64127;51.488;5.462;2022-10-14T05:10:00;12.27;;;11.13;;
75429;SDS011;64127;51.488;5.462;2022-10-14T05:12:35;12.83;;;11.53;;
75429;SDS011;64127;51.488;5.462;2022-10-14T05:15:08;11.70;;;10.53;;
75429;SDS011;64127;51.488;5.462;2022-10-14T05:17:41;13.20;;;12.00;;
75429;SDS011;64127;51.488;5.462;2022-10-14T05:20:14;11.63;;;10.57;;
75429;SDS011;64127;51.488;5.462;2022-10-14T05:22:46;12.30;;;11.00;;
75429;SDS011;64127;51.488;5.462;2022-10-14T05:25:19;12.47;;;10.83;;
75429;SDS011;64127;51.488;5.462;2022-10-14T05:27:50;12.23;;;10.67;;
75429;SDS011;64127;51.488;5.462;2022-10-14T05:30:23;12.40;;;11.10;;
75429;SDS011;64127;51.488;5.462;2022-10-14T05:33:02;12.07;;;10.70;;
75429;SDS011;64127;51.488;5.462;2022-10-14T05:35:34;12.43;;;11.13;;
75429;SDS011;64127;51.488;5.462;2022-10-14T05:38:27;12.37;;;10.30;;
75429;SDS011;64127;51.488;5.462;2022-10-14T05:41:03;11.23;;;10.23;;
75429;SDS011;64127;51.488;5.462;2022-10-14T05:43:36;11.40;;;10.30;;
75429;SDS011;64127;51.488;5.462;2022-10-14T05:46:07;11.43;;;10.33;;
75429;SDS011;64127;51.488;5.462;2022-10-14T05:48:39;11.50;;;10.40;;
75429;SDS011;64127;51.488;5.462;2022-10-14T05:51:11;11.43;;;10.40;;
75429;SDS011;64127;51.488;5.462;2022-10-14T05:53:46;10.93;;;9.83;;
75429;SDS011;64127;51.488;5.462;2022-10-14T05:56:19;11.37;;;10.03;;
75429;SDS011;64127;51.488;5.462;2022-10-14T05:58:51;10.43;;;9.43;;
75429;SDS011;64127;51.488;5.462;2022-10-14T06:01:23;10.70;;;9.70;;
75429;SDS011;64127;51.488;5.462;2022-10-14T06:03:55;11.17;;;10.07;;
75429;SDS011;64127;51.488;5.462;2022-10-14T06:06:27;10.97;;;9.93;;
75429;SDS011;64127;51.488;5.462;2022-10-14T06:08:59;10.80;;;9.80;;
75429;SDS011;64127;51.488;5.462;2022-10-14T06:11:31;11.10;;;9.70;;
75429;SDS011;64127;51.488;5.462;2022-10-14T06:14:03;12.43;;;10.17;;
75429;SDS011;64127;51.488;5.462;2022-10-14T06:16:35;10.63;;;9.63;;
75429;SDS011;64127;51.488;5.462;2022-10-14T06:19:07;10.50;;;9.50;;
75429;SDS011;64127;51.488;5.462;2022-10-14T06:21:39;10.63;;;9.63;;
75429;SDS011;64127;51.488;5.462;2022-10-14T06:24:11;10.70;;;9.70;;
75429;SDS011;64127;51.488;5.462;2022-10-14T06:26:43;10.50;;;9.40;;
75429;SDS011;64127;51.488;5.462;2022-10-14T06:29:15;10.57;;;9.63;;
75429;SDS011;64127;51.488;5.462;2022-10-14T06:31:47;10.07;;;9.23;;
75429;SDS011;64127;51.488;5.462;2022-10-14T06:34:19;10.80;;;9.90;;
75429;SDS011;64127;51.488;5.462;2022-10-14T06:36:53;10.73;;;9.40;;
75429;SDS011;64127;51.488;5.462;2022-10-14T06:39:32;10.97;;;10.07;;
75429;SDS011;64127;51.488;5.462;2022-10-14T06:42:04;10.90;;;9.83;;
75429;SDS011;64127;51.488;5.462;2022-10-14T06:44:42;11.23;;;10.13;;
75429;SDS011;64127;51.488;5.462;2022-10-14T06:47:15;10.57;;;9.53;;
75429;SDS011;64127;51.488;5.462;2022-10-14T06:49:47;11.27;;;10.17;;
75429;SDS011;64127;51.488;5.462;2022-10-14T06:52:19;10.80;;;9.83;;
75429;SDS011;64127;51.488;5.462;2022-10-14T06:54:52;11.23;;;10.13;;
75429;SDS011;64127;51.488;5.462;2022-10-14T06:57:24;11.30;;;10.20;;
75429;SDS011;64127;51.488;5.462;2022-10-14T06:59:56;11.93;;;9.93;;
75429;SDS011;64127;51.488;5.462;2022-10-14T07:02:27;11.03;;;9.93;;
75429;SDS011;64127;51.488;5.462;2022-10-14T07:04:59;11.17;;;10.17;;
75429;SDS011;64127;51.488;5.462;2022-10-14T07:07:31;10.60;;;9.53;;
75429;SDS011;64127;51.488;5.462;2022-10-14T07:10:04;10.00;;;9.10;;
75429;SDS011;64127;51.488;5.462;2022-10-14T07:12:36;10.03;;;9.03;;
75429;SDS011;64127;51.488;5.462;2022-10-14T07:15:08;10.27;;;9.17;;
75429;SDS011;64127;51.488;5.462;2022-10-14T07:17:41;9.90;;;9.00;;
75429;SDS011;64127;51.488;5.462;2022-10-14T07:20:13;10.40;;;9.50;;
75429;SDS011;64127;51.488;5.462;2022-10-14T07:22:45;10.20;;;9.30;;
75429;SDS011;64127;51.488;5.462;2022-10-14T07:25:17;9.63;;;8.73;;
75429;SDS011;64127;51.488;5.462;2022-10-14T07:27:49;10.40;;;9.30;;
75429;SDS011;64127;51.488;5.462;2022-10-14T07:30:26;10.60;;;9.60;;
75429;SDS011;64127;51.488;5.462;2022-10-14T07:32:58;9.37;;;8.57;;
75429;SDS011;64127;51.488;5.462;2022-10-14T07:35:30;10.13;;;9.13;;
75429;SDS011;64127;51.488;5.462;2022-10-14T07:38:02;10.60;;;9.47;;
75429;SDS011;64127;51.488;5.462;2022-10-14T07:40:34;10.43;;;9.40;;
75429;SDS011;64127;51.488;5.462;2022-10-14T07:43:06;10.43;;;9.53;;
75429;SDS011;64127;51.488;5.462;2022-10-14T07:45:39;10.33;;;9.40;;
75429;SDS011;64127;51.488;5.462;2022-10-14T07:48:14;10.27;;;9.33;;
75429;SDS011;64127;51.488;5.462;2022-10-14T07:51:02;10.10;;;9.20;;
75429;SDS011;64127;51.488;5.462;2022-10-14T07:53:35;10.27;;;9.37;;
75429;SDS011;64127;51.488;5.462;2022-10-14T07:56:07;10.50;;;9.60;;
75429;SDS011;64127;51.488;5.462;2022-10-14T07:58:39;10.27;;;9.27;;
75429;SDS011;64127;51.488;5.462;2022-10-14T08:01:14;10.50;;;9.53;;
75429;SDS011;64127;51.488;5.462;2022-10-14T08:03:49;10.13;;;9.30;;
75429;SDS011;64127;51.488;5.462;2022-10-14T08:06:22;10.40;;;9.30;;
75429;SDS011;64127;51.488;5.462;2022-10-14T08:08:54;10.00;;;9.10;;
75429;SDS011;64127;51.488;5.462;2022-10-14T08:11:26;9.70;;;8.90;;
75429;SDS011;64127;51.488;5.462;2022-10-14T08:13:59;10.17;;;9.37;;
75429;SDS011;64127;51.488;5.462;2022-10-14T08:16:32;10.33;;;9.43;;
75429;SDS011;64127;51.488;5.462;2022-10-14T08:19:07;9.80;;;9.00;;
75429;SDS011;64127;51.488;5.462;2022-10-14T08:21:45;9.63;;;8.73;;
75429;SDS011;64127;51.488;5.462;2022-10-14T08:24:17;10.13;;;9.33;;
75429;SDS011;64127;51.488;5.462;2022-10-14T08:26:53;9.53;;;8.73;;
75429;SDS011;64127;51.488;5.462;2022-10-14T08:29:29;10.10;;;9.20;;
75429;SDS011;64127;51.488;5.462;2022-10-14T08:32:01;10.07;;;9.00;;
75429;SDS011;64127;51.488;5.462;2022-10-14T08:34:33;9.90;;;9.00;;
75429;SDS011;64127;51.488;5.462;2022-10-14T08:37:04;9.90;;;9.00;;
75429;SDS011;64127;51.488;5.462;2022-10-14T08:39:36;9.73;;;8.83;;
75429;SDS011;64127;51.488;5.462;2022-10-14T08:42:20;10.10;;;9.20;;
75429;SDS011;64127;51.488;5.462;2022-10-14T08:45:16;9.77;;;8.70;;
75429;SDS011;64127;51.488;5.462;2022-10-14T08:48:04;9.53;;;8.63;;
75429;SDS011;64127;51.488;5.462;2022-10-14T08:53:25;9.20;;;8.40;;
75429;SDS011;64127;51.488;5.462;2022-10-14T08:56:06;9.53;;;8.73;;
75429;SDS011;64127;51.488;5.462;2022-10-14T08:58:43;10.70;;;8.87;;
75429;SDS011;64127;51.488;5.462;2022-10-14T09:01:33;9.87;;;8.87;;
75429;SDS011;64127;51.488;5.462;2022-10-14T09:04:18;9.73;;;8.93;;
75429;SDS011;64127;51.488;5.462;2022-10-14T09:06:50;9.80;;;9.00;;
75429;SDS011;64127;51.488;5.462;2022-10-14T09:09:27;9.10;;;8.20;;
75429;SDS011;64127;51.488;5.462;2022-10-14T09:12:13;9.83;;;8.93;;
75429;SDS011;64127;51.488;5.462;2022-10-14T09:18:03;9.40;;;8.50;;
75429;SDS011;64127;51.488;5.462;2022-10-14T09:20:49;9.50;;;8.57;;
75429;SDS011;64127;51.488;5.462;2022-10-14T09:23:25;8.83;;;7.90;;
75429;SDS011;64127;51.488;5.462;2022-10-14T09:26:01;8.80;;;8.00;;
75429;SDS011;64127;51.488;5.462;2022-10-14T09:28:42;8.57;;;7.77;;
75429;SDS011;64127;51.488;5.462;2022-10-14T09:31:16;8.93;;;8.13;;
75429;SDS011;64127;51.488;5.462;2022-10-14T09:33:48;10.47;;;8.27;;
75429;SDS011;64127;51.488;5.462;2022-10-14T09:36:20;8.50;;;7.80;;
75429;SDS011;64127;51.488;5.462;2022-10-14T09:38:52;8.53;;;7.83;;
75429;SDS011;64127;51.488;5.462;2022-10-14T09:41:27;8.30;;;7.40;;
75429;SDS011;64127;51.488;5.462;2022-10-14T09:47:01;9.87;;;7.47;;
75429;SDS011;64127;51.488;5.462;2022-10-14T09:49:45;8.37;;;7.63;;
75429;SDS011;64127;51.488;5.462;2022-10-14T09:52:20;9.13;;;7.87;;
75429;SDS011;64127;51.488;5.462;2022-10-14T09:54:58;8.93;;;7.50;;
75429;SDS011;64127;51.488;5.462;2022-10-14T09:57:31;8.23;;;7.43;;
75429;SDS011;64127;51.488;5.462;2022-10-14T10:00:04;8.17;;;7.37;;
75429;SDS011;64127;51.488;5.462;2022-10-14T10:02:41;8.77;;;7.87;;
75429;SDS011;64127;51.488;5.462;2022-10-14T10:05:27;8.37;;;7.67;;
75429;SDS011;64127;51.488;5.462;2022-10-14T10:10:41;8.00;;;7.30;;
75429;SDS011;64127;51.488;5.462;2022-10-14T10:13:38;8.40;;;7.60;;
75429;SDS011;64127;51.488;5.462;2022-10-14T10:16:18;8.97;;;7.97;;
75429;SDS011;64127;51.488;5.462;2022-10-14T10:18:55;8.40;;;7.40;;
75429;SDS011;64127;51.488;5.462;2022-10-14T10:21:28;8.27;;;7.33;;
75429;SDS011;64127;51.488;5.462;2022-10-14T10:24:01;7.57;;;6.97;;
75429;SDS011;64127;51.488;5.462;2022-10-14T10:26:46;8.20;;;7.17;;
75429;SDS011;64127;51.488;5.462;2022-10-14T10:29:24;8.73;;;7.33;;
75429;SDS011;64127;51.488;5.462;2022-10-14T10:38:22;7.20;;;6.47;;
75429;SDS011;64127;51.488;5.462;2022-10-14T10:52:50;5.97;;;5.47;;
75429;SDS011;64127;51.488;5.462;2022-10-14T11:01:37;5.47;;;4.80;;
75429;SDS011;64127;51.488;5.462;2022-10-14T11:05:26;6.10;;;5.07;;
75429;SDS011;64127;51.488;5.462;2022-10-14T11:08:11;5.10;;;4.70;;
75429;SDS011;64127;51.488;5.462;2022-10-14T11:11:42;5.30;;;4.70;;
75429;SDS011;64127;51.488;5.462;2022-10-14T11:24:00;6.90;;;6.20;;
75429;SDS011;64127;51.488;5.462;2022-10-14T11:27:12;7.20;;;6.50;;
75429;SDS011;64127;51.488;5.462;2022-10-14T11:30:30;7.87;;;7.03;;
75429;SDS011;64127;51.488;5.462;2022-10-14T11:33:24;8.20;;;7.50;;
75429;SDS011;64127;51.488;5.462;2022-10-14T11:51:15;11.50;;;10.50;;
75429;SDS011;64127;51.488;5.462;2022-10-14T11:54:23;11.70;;;10.70;;
75429;SDS011;64127;51.488;5.462;2022-10-14T11:57:46;11.57;;;10.67;;
75429;SDS011;64127;51.488;5.462;2022-10-14T12:00:26;11.63;;;10.73;;
75429;SDS011;64127;51.488;5.462;2022-10-14T12:03:05;12.23;;;11.23;;
75429;SDS011;64127;51.488;5.462;2022-10-14T12:11:37;11.80;;;10.70;;
75429;SDS011;64127;51.488;5.462;2022-10-14T12:14:27;12.77;;;11.77;;
75429;SDS011;64127;51.488;5.462;2022-10-14T12:17:36;14.03;;;12.77;;
75429;SDS011;64127;51.488;5.462;2022-10-14T12:23:49;12.43;;;11.20;;
75429;SDS011;64127;51.488;5.462;2022-10-14T12:28:53;12.90;;;11.60;;
75429;SDS011;64127;51.488;5.462;2022-10-14T12:31:36;12.23;;;11.23;;
75429;SDS011;64127;51.488;5.462;2022-10-14T12:36:42;11.33;;;10.53;;
75429;SDS011;64127;51.488;5.462;2022-10-14T12:39:21;9.93;;;9.13;;
75429;SDS011;64127;51.488;5.462;2022-10-14T12:42:08;8.27;;;7.60;;
75429;SDS011;64127;51.488;5.462;2022-10-14T12:44:51;9.40;;;8.60;;
75429;SDS011;64127;51.488;5.462;2022-10-14T12:47:31;8.00;;;7.30;;
75429;SDS011;64127;51.488;5.462;2022-10-14T12:52:45;7.90;;;7.20;;
75429;SDS011;64127;51.488;5.462;2022-10-14T12:55:27;6.77;;;6.27;;
75429;SDS011;64127;51.488;5.462;2022-10-14T12:58:04;6.80;;;6.30;;
75429;SDS011;64127;51.488;5.462;2022-10-14T13:00:37;7.00;;;6.40;;
75429;SDS011;64127;51.488;5.462;2022-10-14T13:03:18;6.40;;;5.87;;
75429;SDS011;64127;51.488;5.462;2022-10-14T13:06:42;5.67;;;5.17;;
75429;SDS011;64127;51.488;5.462;2022-10-14T13:09:46;4.57;;;4.27;;
75429;SDS011;64127;51.488;5.462;2022-10-14T13:12:51;4.17;;;3.87;;
75429;SDS011;64127;51.488;5.462;2022-10-14T13:24:23;4.63;;;3.20;;
75429;SDS011;64127;51.488;5.462;2022-10-14T13:27:04;4.07;;;3.67;;
75429;SDS011;64127;51.488;5.462;2022-10-14T13:35:30;3.53;;;3.30;;
75429;SDS011;64127;51.488;5.462;2022-10-14T13:38:26;3.87;;;3.57;;
75429;SDS011;64127;51.488;5.462;2022-10-14T13:40:58;4.50;;;4.10;;
75429;SDS011;64127;51.488;5.462;2022-10-14T13:43:39;4.60;;;4.20;;
75429;SDS011;64127;51.488;5.462;2022-10-14T13:46:17;4.90;;;4.40;;
75429;SDS011;64127;51.488;5.462;2022-10-14T13:49:11;4.33;;;3.93;;
75429;SDS011;64127;51.488;5.462;2022-10-14T13:52:04;4.57;;;4.13;;
75429;SDS011;64127;51.488;5.462;2022-10-14T13:54:43;4.77;;;4.47;;
75429;SDS011;64127;51.488;5.462;2022-10-14T13:57:15;4.70;;;4.40;;
75429;SDS011;64127;51.488;5.462;2022-10-14T14:03:22;5.87;;;5.40;;
75429;SDS011;64127;51.488;5.462;2022-10-14T14:06:11;6.10;;;5.67;;
75429;SDS011;64127;51.488;5.462;2022-10-14T14:11:29;7.00;;;6.40;;
75429;SDS011;64127;51.488;5.462;2022-10-14T14:14:17;6.77;;;6.27;;
75429;SDS011;64127;51.488;5.462;2022-10-14T14:17:14;7.77;;;7.17;;
75429;SDS011;64127;51.488;5.462;2022-10-14T14:19:53;8.67;;;8.07;;
75429;SDS011;64127;51.488;5.462;2022-10-14T14:22:27;10.30;;;9.50;;
75429;SDS011;64127;51.488;5.462;2022-10-14T14:28:04;12.73;;;11.63;;
75429;SDS011;64127;51.488;5.462;2022-10-14T14:30:46;12.87;;;11.87;;
75429;SDS011;64127;51.488;5.462;2022-10-14T14:33:27;13.83;;;12.73;;
75429;SDS011;64127;51.488;5.462;2022-10-14T14:36:05;14.30;;;13.00;;
75429;SDS011;64127;51.488;5.462;2022-10-14T14:38:58;14.90;;;13.60;;
75429;SDS011;64127;51.488;5.462;2022-10-14T14:41:32;15.77;;;14.57;;
75429;SDS011;64127;51.488;5.462;2022-10-14T14:44:04;15.63;;;14.43;;
75429;SDS011;64127;51.488;5.462;2022-10-14T14:46:57;16.73;;;15.33;;
75429;SDS011;64127;51.488;5.462;2022-10-14T14:49:36;16.67;;;15.27;;
75429;SDS011;64127;51.488;5.462;2022-10-14T14:52:10;17.03;;;15.60;;
75429;SDS011;64127;51.488;5.462;2022-10-14T14:54:45;16.83;;;15.47;;
75429;SDS011;64127;51.488;5.462;2022-10-14T14:57:19;18.20;;;16.50;;
75429;SDS011;64127;51.488;5.462;2022-10-14T14:59:58;18.90;;;17.30;;
75429;SDS011;64127;51.488;5.462;2022-10-14T15:02:34;19.20;;;17.60;;
75429;SDS011;64127;51.488;5.462;2022-10-14T15:05:07;19.53;;;17.83;;
75429;SDS011;64127;51.488;5.462;2022-10-14T15:07:41;19.60;;;17.90;;
75429;SDS011;64127;51.488;5.462;2022-10-14T15:10:18;18.97;;;17.37;;
75429;SDS011;64127;51.488;5.462;2022-10-14T15:12:58;18.87;;;17.27;;
75429;SDS011;64127;51.488;5.462;2022-10-14T15:15:33;19.77;;;18.17;;
75429;SDS011;64127;51.488;5.462;2022-10-14T15:18:12;20.20;;;18.50;;
75429;SDS011;64127;51.488;5.462;2022-10-14T15:20:46;20.13;;;18.43;;
75429;SDS011;64127;51.488;5.462;2022-10-14T15:26:31;19.60;;;17.90;;
75429;SDS011;64127;51.488;5.462;2022-10-14T15:31:38;21.73;;;19.53;;
75429;SDS011;64127;51.488;5.462;2022-10-14T15:34:30;21.23;;;19.43;;
75429;SDS011;64127;51.488;5.462;2022-10-14T15:37:02;20.73;;;18.93;;
75429;SDS011;64127;51.488;5.462;2022-10-14T15:39:34;21.60;;;19.70;;
75429;SDS011;64127;51.488;5.462;2022-10-14T15:42:09;21.83;;;19.90;;
75429;SDS011;64127;51.488;5.462;2022-10-14T15:44:42;21.40;;;19.60;;
75429;SDS011;64127;51.488;5.462;2022-10-14T15:47:14;22.13;;;20.03;;
75429;SDS011;64127;51.488;5.462;2022-10-14T15:49:51;22.37;;;20.30;;
75429;SDS011;64127;51.488;5.462;2022-10-14T15:52:23;23.60;;;21.53;;
75429;SDS011;64127;51.488;5.462;2022-10-14T15:54:57;23.43;;;21.33;;
75429;SDS011;64127;51.488;5.462;2022-10-14T15:57:29;23.43;;;21.33;;
75429;SDS011;64127;51.488;5.462;2022-10-14T16:00:01;24.00;;;21.67;;
75429;SDS011;64127;51.488;5.462;2022-10-14T16:02:34;24.90;;;22.70;;
75429;SDS011;64127;51.488;5.462;2022-10-14T16:05:06;24.17;;;21.97;;
75429;SDS011;64127;51.488;5.462;2022-10-14T16:07:55;24.67;;;22.40;;
75429;SDS011;64127;51.488;5.462;2022-10-14T16:10:27;24.27;;;22.00;;
75429;SDS011;64127;51.488;5.462;2022-10-14T16:13:04;26.40;;;21.47;;
75429;SDS011;64127;51.488;5.462;2022-10-14T16:15:44;24.20;;;21.80;;
75429;SDS011;64127;51.488;5.462;2022-10-14T16:18:33;22.87;;;20.77;;
75429;SDS011;64127;51.488;5.462;2022-10-14T16:21:05;22.97;;;20.77;;
75429;SDS011;64127;51.488;5.462;2022-10-14T16:23:44;25.80;;;23.40;;
75429;SDS011;64127;51.488;5.462;2022-10-14T16:26:16;24.47;;;22.10;;
75429;SDS011;64127;51.488;5.462;2022-10-14T16:28:48;24.90;;;22.60;;
75429;SDS011;64127;51.488;5.462;2022-10-14T16:31:21;25.00;;;22.70;;
75429;SDS011;64127;51.488;5.462;2022-10-14T16:33:54;24.57;;;22.20;;
75429;SDS011;64127;51.488;5.462;2022-10-14T16:36:26;23.67;;;21.47;;
75429;SDS011;64127;51.488;5.462;2022-10-14T16:38:59;24.00;;;21.70;;
75429;SDS011;64127;51.488;5.462;2022-10-14T16:41:31;25.97;;;23.67;;
75429;SDS011;64127;51.488;5.462;2022-10-14T16:44:04;25.57;;;23.13;;
75429;SDS011;64127;51.488;5.462;2022-10-14T16:46:36;25.37;;;22.87;;
75429;SDS011;64127;51.488;5.462;2022-10-14T16:49:27;25.57;;;23.17;;
75429;SDS011;64127;51.488;5.462;2022-10-14T16:51:59;25.83;;;23.33;;
75429;SDS011;64127;51.488;5.462;2022-10-14T16:54:31;25.47;;;23.00;;
75429;SDS011;64127;51.488;5.462;2022-10-14T16:57:03;24.23;;;21.80;;
75429;SDS011;64127;51.488;5.462;2022-10-14T16:59:36;24.20;;;21.80;;
75429;SDS011;64127;51.488;5.462;2022-10-14T17:02:13;24.43;;;22.03;;
75429;SDS011;64127;51.488;5.462;2022-10-14T17:04:47;23.27;;;21.03;;
75429;SDS011;64127;51.488;5.462;2022-10-14T17:07:19;24.10;;;21.80;;
75429;SDS011;64127;51.488;5.462;2022-10-14T17:09:51;24.97;;;22.60;;
75429;SDS011;64127;51.488;5.462;2022-10-14T17:12:23;25.20;;;22.80;;
75429;SDS011;64127;51.488;5.462;2022-10-14T17:14:56;31.30;;;24.27;;
75429;SDS011;64127;51.488;5.462;2022-10-14T17:17:28;25.13;;;22.77;;
75429;SDS011;64127;51.488;5.462;2022-10-14T17:20:00;25.57;;;23.17;;
75429;SDS011;64127;51.488;5.462;2022-10-14T17:22:32;24.73;;;22.33;;
75429;SDS011;64127;51.488;5.462;2022-10-14T17:25:04;24.67;;;22.13;;
75429;SDS011;64127;51.488;5.462;2022-10-14T17:27:38;27.03;;;24.33;;
75429;SDS011;64127;51.488;5.462;2022-10-14T17:30:10;26.13;;;23.50;;
75429;SDS011;64127;51.488;5.462;2022-10-14T17:32:42;26.67;;;24.07;;
75429;SDS011;64127;51.488;5.462;2022-10-14T17:35:14;25.97;;;23.47;;
75429;SDS011;64127;51.488;5.462;2022-10-14T17:37:46;26.07;;;23.57;;
75429;SDS011;64127;51.488;5.462;2022-10-14T17:40:18;26.17;;;23.60;;
75429;SDS011;64127;51.488;5.462;2022-10-14T17:42:50;25.03;;;22.63;;